Time;durP1;ratioP1;P1;durP2;ratioP2;P2;SDS_P1;SDS_P2;PMS_P1;PMS_P2;Temp;Humidity;BMP_temperature;BMP_pressure;BME280_temperature;BME280_humidity;BME280_pressure;Samples;Min_cycle;Max_cycle;Signal;HPM_P1;HPM_P2
2021/07/17 00:00:58;;;;;;;6.93;2.63;;;;;;;;;;5035699;28;20030;-70
2021/07/17 00:03:24;;;;;;;8.35;2.38;;;;;;;;;;5035681;28;20432;-71
2021/07/17 00:05:50;;;;;;;4.57;2.22;;;;;;;;;;5035745;28;20033;-71
2021/07/17 00:08:16;;;;;;;5.22;2.30;;;;;;;;;;5035520;28;20064;-70
2021/07/17 00:10:47;;;;;;;4.57;2.42;;;;;;;;;;5035775;28;20466;-71
2021/07/17 00:13:13;;;;;;;5.60;2.45;;;;;;;;;;5035817;28;20027;-72
2021/07/17 00:15:39;;;;;;;4.57;2.10;;;;;;;;;;5035625;28;20046;-70
2021/07/17 00:18:06;;;;;;;5.05;2.00;;;;;;;;;;5035516;28;20033;-71
2021/07/17 00:20:32;;;;;;;6.57;2.00;;;;;;;;;;5035577;28;20026;-71
2021/07/17 00:22:59;;;;;;;7.32;2.83;;;;;;;;;;5035682;28;20029;-70
2021/07/17 00:25:25;;;;;;;2.70;2.00;;;;;;;;;;5034326;28;20026;-71
2021/07/17 00:27:52;;;;;;;4.30;2.28;;;;;;;;;;5035188;28;20395;-70
2021/07/17 00:30:18;;;;;;;5.63;2.13;;;;;;;;;;5035568;28;20062;-71
2021/07/17 00:32:45;;;;;;;4.13;2.20;;;;;;;;;;5034784;28;20033;-71
2021/07/17 00:35:11;;;;;;;8.18;2.28;;;;;;;;;;5034653;28;20037;-71
2021/07/17 00:37:38;;;;;;;6.93;2.17;;;;;;;;;;5035158;28;20033;-72
2021/07/17 00:40:04;;;;;;;5.13;2.13;;;;;;;;;;5035123;28;20438;-71
2021/07/17 00:42:31;;;;;;;3.60;1.65;;;;;;;;;;5035065;28;20036;-71
2021/07/17 00:44:57;;;;;;;3.17;2.08;;;;;;;;;;5035026;28;20568;-71
2021/07/17 00:47:24;;;;;;;6.32;2.30;;;;;;;;;;5034960;28;20065;-71
2021/07/17 00:49:52;;;;;;;6.32;1.95;;;;;;;;;;5034981;28;20425;-72
2021/07/17 00:52:18;;;;;;;3.47;2.30;;;;;;;;;;5034799;28;20858;-71
2021/07/17 00:54:44;;;;;;;2.60;1.77;;;;;;;;;;5034966;28;20108;-71
2021/07/17 00:57:10;;;;;;;5.13;2.15;;;;;;;;;;5034928;28;20068;-71
2021/07/17 00:59:37;;;;;;;4.05;1.90;;;;;;;;;;5031822;28;20025;-72
2021/07/17 01:02:04;;;;;;;8.52;1.90;;;;;;;;;;5032268;28;20029;-72
2021/07/17 01:04:31;;;;;;;5.30;2.30;;;;;;;;;;5032764;28;20127;-72
2021/07/17 01:06:58;;;;;;;7.03;1.92;;;;;;;;;;5033119;28;20505;-72
2021/07/17 01:09:25;;;;;;;3.35;1.83;;;;;;;;;;5034147;28;20044;-71
2021/07/17 01:11:51;;;;;;;5.22;2.00;;;;;;;;;;5034526;28;20024;-71
2021/07/17 01:14:17;;;;;;;2.53;1.73;;;;;;;;;;5034103;28;20116;-71
2021/07/17 01:16:43;;;;;;;7.07;2.65;;;;;;;;;;5034655;28;20432;-71
2021/07/17 01:19:11;;;;;;;6.63;1.88;;;;;;;;;;5034286;28;20033;-71
2021/07/17 01:21:37;;;;;;;5.57;1.90;;;;;;;;;;5034039;28;20018;-72
2021/07/17 01:24:03;;;;;;;5.30;2.50;;;;;;;;;;5034423;28;20021;-72
2021/07/17 01:26:29;;;;;;;3.40;2.00;;;;;;;;;;5034207;28;20473;-71
2021/07/17 01:28:55;;;;;;;6.20;2.22;;;;;;;;;;5033781;28;20030;-72
2021/07/17 01:31:21;;;;;;;4.85;2.13;;;;;;;;;;5034229;28;20068;-71
2021/07/17 01:33:47;;;;;;;4.55;2.03;;;;;;;;;;5034302;28;20040;-70
2021/07/17 01:36:14;;;;;;;5.05;1.80;;;;;;;;;;5033758;28;20025;-71
2021/07/17 01:38:40;;;;;;;3.78;1.90;;;;;;;;;;5034003;28;20053;-72
2021/07/17 01:41:09;;;;;;;3.40;1.85;;;;;;;;;;5034002;28;20033;-71
2021/07/17 01:43:35;;;;;;;2.70;2.08;;;;;;;;;;5033427;28;20034;-71
2021/07/17 01:46:01;;;;;;;4.78;2.10;;;;;;;;;;5033868;28;20036;-71
2021/07/17 01:48:27;;;;;;;3.10;2.00;;;;;;;;;;5033870;28;20063;-71
2021/07/17 01:50:53;;;;;;;4.13;1.83;;;;;;;;;;5033489;28;20048;-68
2021/07/17 01:53:22;;;;;;;3.65;2.03;;;;;;;;;;5033634;28;20029;-71
2021/07/17 01:55:48;;;;;;;4.13;2.25;;;;;;;;;;5033675;28;20092;-71
2021/07/17 01:58:14;;;;;;;6.57;2.42;;;;;;;;;;5033416;28;20060;-70
2021/07/17 02:00:41;;;;;;;3.47;2.08;;;;;;;;;;5033471;28;20029;-69
2021/07/17 02:03:07;;;;;;;5.72;2.45;;;;;;;;;;5033776;28;20053;-70
2021/07/17 02:05:33;;;;;;;3.53;2.10;;;;;;;;;;5032338;28;20048;-68
2021/07/17 02:08:00;;;;;;;7.43;2.10;;;;;;;;;;5033321;28;20083;-70
2021/07/17 02:10:27;;;;;;;6.90;2.20;;;;;;;;;;5033241;28;20029;-70
2021/07/17 02:13:10;;;;;;;12.07;2.30;;;;;;;;;;5033302;28;20029;-71
2021/07/17 02:15:43;;;;;;;3.05;2.05;;;;;;;;;;5032753;28;20045;-70
2021/07/17 02:18:10;;;;;;;3.42;1.90;;;;;;;;;;5032245;28;20102;-70
2021/07/17 02:20:36;;;;;;;13.02;2.40;;;;;;;;;;5033212;28;20433;-70
2021/07/17 02:23:03;;;;;;;4.63;2.10;;;;;;;;;;5033055;28;20060;-69
2021/07/17 02:25:29;;;;;;;5.95;2.40;;;;;;;;;;5033150;28;20447;-71
2021/07/17 02:27:56;;;;;;;3.33;2.17;;;;;;;;;;5033218;28;20053;-72
2021/07/17 02:30:22;;;;;;;5.88;2.25;;;;;;;;;;5033619;28;20394;-68
2021/07/17 02:32:51;;;;;;;5.85;2.17;;;;;;;;;;5032936;28;20490;-68
2021/07/17 02:35:17;;;;;;;4.80;2.00;;;;;;;;;;5033026;28;20025;-70
2021/07/17 02:37:43;;;;;;;7.15;2.30;;;;;;;;;;5033173;28;20018;-68
2021/07/17 02:40:09;;;;;;;4.20;2.30;;;;;;;;;;5033031;28;20028;-70
2021/07/17 02:42:36;;;;;;;5.93;2.10;;;;;;;;;;5032864;28;20025;-69
2021/07/17 02:45:03;;;;;;;4.63;2.30;;;;;;;;;;5033246;28;20033;-67
2021/07/17 02:47:29;;;;;;;10.13;2.38;;;;;;;;;;5032936;28;20029;-72
2021/07/17 02:49:55;;;;;;;4.70;2.05;;;;;;;;;;5032854;28;20455;-70
2021/07/17 02:52:21;;;;;;;3.95;2.20;;;;;;;;;;5032794;28;20029;-70
2021/07/17 02:54:47;;;;;;;5.13;2.20;;;;;;;;;;5032459;28;20025;-70
2021/07/17 02:57:13;;;;;;;4.43;2.22;;;;;;;;;;5034769;28;20029;-71
2021/07/17 02:59:39;;;;;;;3.75;1.90;;;;;;;;;;5037136;28;20064;-68
2021/07/17 03:02:05;;;;;;;4.47;2.30;;;;;;;;;;5037070;28;20060;-69
2021/07/17 03:04:38;;;;;;;6.88;2.40;;;;;;;;;;5036697;28;20422;-69
2021/07/17 03:07:04;;;;;;;6.30;2.15;;;;;;;;;;5036987;28;20486;-70
2021/07/17 03:09:31;;;;;;;3.78;2.40;;;;;;;;;;5037170;28;20029;-69
2021/07/17 03:11:57;;;;;;;3.95;2.08;;;;;;;;;;5036751;28;20029;-71
2021/07/17 03:14:23;;;;;;;3.25;2.13;;;;;;;;;;5036769;28;20041;-70
2021/07/17 03:16:49;;;;;;;6.18;2.30;;;;;;;;;;5036692;28;20025;-71
2021/07/17 03:19:15;;;;;;;4.28;2.03;;;;;;;;;;5036845;28;20416;-70
2021/07/17 03:21:41;;;;;;;4.60;2.15;;;;;;;;;;5036779;28;20422;-70
2021/07/17 03:24:07;;;;;;;3.53;2.53;;;;;;;;;;5036682;28;20025;-69
2021/07/17 03:26:33;;;;;;;6.35;2.60;;;;;;;;;;5036854;28;20425;-68
2021/07/17 03:28:59;;;;;;;4.75;2.15;;;;;;;;;;5036641;28;20446;-70
2021/07/17 03:31:26;;;;;;;4.88;2.35;;;;;;;;;;5036308;28;20026;-67
2021/07/17 03:33:52;;;;;;;6.10;2.20;;;;;;;;;;5036534;28;20021;-67
2021/07/17 03:36:20;;;;;;;4.32;2.20;;;;;;;;;;5036392;28;20030;-68
2021/07/17 03:38:46;;;;;;;9.85;2.80;;;;;;;;;;5036532;28;20029;-70
2021/07/17 03:41:12;;;;;;;3.90;2.20;;;;;;;;;;5036151;28;20048;-69
2021/07/17 03:43:38;;;;;;;5.40;2.40;;;;;;;;;;5036029;28;20467;-68
2021/07/17 03:46:04;;;;;;;6.05;2.40;;;;;;;;;;5036133;28;20487;-69
2021/07/17 03:48:30;;;;;;;7.88;2.38;;;;;;;;;;5036056;28;20116;-68
2021/07/17 03:50:56;;;;;;;4.43;2.33;;;;;;;;;;5036017;28;20108;-69
2021/07/17 03:53:22;;;;;;;4.30;2.60;;;;;;;;;;5035679;28;20030;-71
2021/07/17 03:55:48;;;;;;;4.57;2.45;;;;;;;;;;5034972;28;20053;-71
2021/07/17 03:58:14;;;;;;;6.20;2.47;;;;;;;;;;5036138;28;20048;-70
2021/07/17 04:00:41;;;;;;;3.90;2.40;;;;;;;;;;5036163;28;20393;-68
2021/07/17 04:03:12;;;;;;;8.13;2.30;;;;;;;;;;5035657;28;20026;-70
2021/07/17 04:05:38;;;;;;;6.40;2.30;;;;;;;;;;5035565;28;20029;-67
2021/07/17 04:08:04;;;;;;;5.38;2.30;;;;;;;;;;5035692;28;20053;-71
2021/07/17 04:10:30;;;;;;;6.32;2.30;;;;;;;;;;5035824;28;20363;-69
2021/07/17 04:12:56;;;;;;;6.97;2.00;;;;;;;;;;5035667;28;20037;-70
2021/07/17 04:15:22;;;;;;;2.72;2.20;;;;;;;;;;5035147;28;20049;-67
2021/07/17 04:17:48;;;;;;;3.75;2.40;;;;;;;;;;5035611;28;20076;-68
2021/07/17 04:20:14;;;;;;;3.35;2.50;;;;;;;;;;5035571;28;20079;-70
2021/07/17 04:22:40;;;;;;;4.68;2.72;;;;;;;;;;5035508;28;20025;-68
2021/07/17 04:25:07;;;;;;;6.10;2.80;;;;;;;;;;5035241;28;20021;-70
2021/07/17 04:27:34;;;;;;;5.45;2.80;;;;;;;;;;5033799;28;20029;-72
2021/07/17 04:30:00;;;;;;;7.15;2.90;;;;;;;;;;5035467;28;20064;-71
2021/07/17 04:32:26;;;;;;;6.35;2.50;;;;;;;;;;5035260;28;20026;-69
2021/07/17 04:34:52;;;;;;;7.20;3.30;;;;;;;;;;5034993;28;20067;-69
2021/07/17 04:37:19;;;;;;;7.57;3.50;;;;;;;;;;5035057;28;20036;-68
2021/07/17 04:39:48;;;;;;;7.53;2.30;;;;;;;;;;5034956;28;20096;-71
2021/07/17 04:42:14;;;;;;;7.63;2.47;;;;;;;;;;5035158;28;20490;-70
2021/07/17 04:44:40;;;;;;;8.75;2.47;;;;;;;;;;5035129;28;20398;-71
2021/07/17 04:47:06;;;;;;;6.30;2.63;;;;;;;;;;5035041;28;20061;-71
2021/07/17 04:49:32;;;;;;;7.53;2.40;;;;;;;;;;5034963;28;20032;-71
2021/07/17 04:51:58;;;;;;;6.28;2.55;;;;;;;;;;5034875;28;20026;-72
2021/07/17 04:54:24;;;;;;;6.68;2.80;;;;;;;;;;5035203;28;20113;-71
2021/07/17 04:56:50;;;;;;;5.10;2.35;;;;;;;;;;5034973;28;20100;-72
2021/07/17 04:59:16;;;;;;;7.70;2.42;;;;;;;;;;5034719;28;20018;-71
2021/07/17 05:01:42;;;;;;;8.45;2.30;;;;;;;;;;5034785;28;20532;-71
2021/07/17 05:04:08;;;;;;;9.85;2.10;;;;;;;;;;5034729;28;20037;-71
2021/07/17 05:06:34;;;;;;;5.38;2.00;;;;;;;;;;5034518;28;20040;-72
2021/07/17 05:09:00;;;;;;;4.35;2.00;;;;;;;;;;5034620;28;20393;-72
2021/07/17 05:11:26;;;;;;;8.98;2.35;;;;;;;;;;5034653;28;20470;-70
2021/07/17 05:13:52;;;;;;;7.03;2.30;;;;;;;;;;5034624;28;20029;-71
2021/07/17 05:16:18;;;;;;;3.33;2.15;;;;;;;;;;5034219;28;20050;-70
2021/07/17 05:18:44;;;;;;;4.07;2.30;;;;;;;;;;5034566;28;20032;-71
2021/07/17 05:21:10;;;;;;;6.72;2.10;;;;;;;;;;5034065;28;20366;-71
2021/07/17 05:23:36;;;;;;;6.90;2.13;;;;;;;;;;5034273;28;20025;-72
2021/07/17 05:26:02;;;;;;;4.47;2.40;;;;;;;;;;5034474;28;20104;-71
2021/07/17 05:28:28;;;;;;;2.95;2.30;;;;;;;;;;5034058;28;20128;-72
2021/07/17 05:30:55;;;;;;;6.10;2.40;;;;;;;;;;5034076;28;20433;-71
2021/07/17 05:33:21;;;;;;;5.32;2.05;;;;;;;;;;5034123;28;22332;-70
2021/07/17 05:35:47;;;;;;;3.15;2.38;;;;;;;;;;5034007;28;20010;-70
2021/07/17 05:38:13;;;;;;;6.63;2.38;;;;;;;;;;5033998;28;20021;-68
2021/07/17 05:40:39;;;;;;;6.68;2.75;;;;;;;;;;5033621;28;20140;-68
2021/07/17 05:43:05;;;;;;;5.00;2.30;;;;;;;;;;5034199;28;20037;-70
2021/07/17 05:45:31;;;;;;;3.58;2.35;;;;;;;;;;5034049;28;20022;-68
2021/07/17 05:47:57;;;;;;;2.97;2.30;;;;;;;;;;5034319;28;20120;-68
2021/07/17 05:50:23;;;;;;;6.85;2.50;;;;;;;;;;5034060;28;20115;-69
2021/07/17 05:52:49;;;;;;;6.50;2.67;;;;;;;;;;5033983;28;20033;-67
2021/07/17 05:55:15;;;;;;;7.72;2.25;;;;;;;;;;5033827;28;20398;-67
2021/07/17 05:57:41;;;;;;;8.63;2.75;;;;;;;;;;5033879;28;20059;-71
2021/07/17 06:00:11;;;;;;;6.15;2.22;;;;;;;;;;5033583;28;20022;-68
2021/07/17 06:02:37;;;;;;;9.40;2.53;;;;;;;;;;5033933;28;20085;-67
2021/07/17 06:05:03;;;;;;;11.75;2.40;;;;;;;;;;5033859;28;20414;-68
2021/07/17 06:07:29;;;;;;;4.28;2.55;;;;;;;;;;5033365;28;20029;-69
2021/07/17 06:09:55;;;;;;;9.07;2.25;;;;;;;;;;5033569;28;20021;-67
2021/07/17 06:12:21;;;;;;;5.20;2.00;;;;;;;;;;5033314;28;20029;-71
2021/07/17 06:14:47;;;;;;;5.05;2.45;;;;;;;;;;5033051;28;20045;-70
2021/07/17 06:17:13;;;;;;;7.25;1.92;;;;;;;;;;5033269;28;20029;-67
2021/07/17 06:19:42;;;;;;;5.38;2.10;;;;;;;;;;5033317;28;20025;-69
2021/07/17 06:22:09;;;;;;;5.03;2.38;;;;;;;;;;5033271;28;20083;-67
2021/07/17 06:24:36;;;;;;;5.38;2.40;;;;;;;;;;5033148;28;20445;-70
2021/07/17 06:27:02;;;;;;;4.20;2.53;;;;;;;;;;5033050;28;20108;-69
2021/07/17 06:29:28;;;;;;;2.33;1.95;;;;;;;;;;5032956;28;20082;-68
2021/07/17 06:31:54;;;;;;;9.68;2.28;;;;;;;;;;5032527;28;20021;-69
2021/07/17 06:34:20;;;;;;;4.82;2.28;;;;;;;;;;5032259;28;20482;-68
2021/07/17 06:36:46;;;;;;;2.58;2.20;;;;;;;;;;5032459;28;20521;-68
2021/07/17 06:39:12;;;;;;;7.45;2.25;;;;;;;;;;5032464;28;20033;-67
2021/07/17 06:41:38;;;;;;;3.13;2.30;;;;;;;;;;5032664;28;20030;-69
2021/07/17 06:44:04;;;;;;;7.43;2.55;;;;;;;;;;5031108;28;20044;-67
2021/07/17 06:46:33;;;;;;;7.65;2.42;;;;;;;;;;5030357;28;20036;-67
2021/07/17 06:48:59;;;;;;;7.05;2.38;;;;;;;;;;5029353;28;20486;-67
2021/07/17 06:51:25;;;;;;;7.00;2.38;;;;;;;;;;5030117;28;20025;-67
2021/07/17 06:53:51;;;;;;;6.25;2.30;;;;;;;;;;5030412;28;20033;-67
2021/07/17 06:56:17;;;;;;;7.03;2.30;;;;;;;;;;5047435;23;20614;-69
2021/07/17 06:58:43;;;;;;;10.95;2.40;;;;;;;;;;5031880;28;20029;-69
2021/07/17 07:01:09;;;;;;;3.17;2.15;;;;;;;;;;5032566;28;20080;-69
2021/07/17 07:03:35;;;;;;;4.18;2.15;;;;;;;;;;5031977;28;20025;-68
2021/07/17 07:06:04;;;;;;;8.63;2.25;;;;;;;;;;5032292;28;20144;-69
2021/07/17 07:08:31;;;;;;;3.03;2.13;;;;;;;;;;5032310;28;20072;-70
2021/07/17 07:10:57;;;;;;;5.05;2.08;;;;;;;;;;5032152;28;20379;-69
2021/07/17 07:13:23;;;;;;;2.72;1.88;;;;;;;;;;5032281;28;20026;-69
2021/07/17 07:15:49;;;;;;;6.85;2.25;;;;;;;;;;5032046;28;20017;-68
2021/07/17 07:18:15;;;;;;;5.68;2.20;;;;;;;;;;5032578;28;20024;-69
2021/07/17 07:20:41;;;;;;;3.05;2.25;;;;;;;;;;5032739;28;20037;-69
2021/07/17 07:23:07;;;;;;;4.90;2.10;;;;;;;;;;5032225;28;20029;-69
2021/07/17 07:25:33;;;;;;;4.07;2.10;;;;;;;;;;5032382;28;20033;-68
2021/07/17 07:27:59;;;;;;;6.20;2.10;;;;;;;;;;5032468;28;20038;-69
2021/07/17 07:30:25;;;;;;;6.65;2.15;;;;;;;;;;5031684;28;20144;-69
2021/07/17 07:32:52;;;;;;;5.65;2.40;;;;;;;;;;5031953;28;20037;-69
2021/07/17 07:35:19;;;;;;;3.97;2.28;;;;;;;;;;5030745;28;20029;-68
2021/07/17 07:37:47;;;;;;;6.35;2.30;;;;;;;;;;5031885;28;20029;-69
2021/07/17 07:40:14;;;;;;;4.68;2.40;;;;;;;;;;5032015;28;20022;-68
2021/07/17 07:42:40;;;;;;;5.68;2.33;;;;;;;;;;5030734;28;20385;-69
2021/07/17 07:45:07;;;;;;;4.55;2.30;;;;;;;;;;5035648;28;20101;-68
2021/07/17 07:47:33;;;;;;;3.63;2.08;;;;;;;;;;5035865;28;20040;-68
2021/07/17 07:49:59;;;;;;;4.90;2.05;;;;;;;;;;5036130;28;20031;-69
2021/07/17 07:52:25;;;;;;;4.22;2.33;;;;;;;;;;5036037;28;20021;-68
2021/07/17 07:54:51;;;;;;;4.75;2.53;;;;;;;;;;5035510;28;20028;-68
2021/07/17 07:57:18;;;;;;;4.50;2.22;;;;;;;;;;5035384;28;20056;-68
2021/07/17 07:59:44;;;;;;;9.35;2.60;;;;;;;;;;5035282;28;20478;-70
2021/07/17 08:02:10;;;;;;;6.22;2.33;;;;;;;;;;5035350;28;20382;-70
2021/07/17 08:04:36;;;;;;;5.53;2.67;;;;;;;;;;5035696;28;20026;-70
2021/07/17 08:07:02;;;;;;;6.22;2.45;;;;;;;;;;5035478;28;20033;-70
2021/07/17 08:09:28;;;;;;;5.50;2.20;;;;;;;;;;5035267;28;20489;-70
2021/07/17 08:11:54;;;;;;;3.40;2.45;;;;;;;;;;5035201;28;20028;-69
2021/07/17 08:14:21;;;;;;;5.32;2.45;;;;;;;;;;5035295;28;20026;-69
2021/07/17 08:16:47;;;;;;;5.32;2.03;;;;;;;;;;5034873;28;20024;-68
2021/07/17 08:19:13;;;;;;;4.10;2.20;;;;;;;;;;5035280;28;20029;-68
2021/07/17 08:21:39;;;;;;;5.68;2.35;;;;;;;;;;5035494;28;20032;-69
2021/07/17 08:24:07;;;;;;;3.13;2.50;;;;;;;;;;5035203;28;20054;-69
2021/07/17 08:26:33;;;;;;;6.97;2.33;;;;;;;;;;5035555;28;20604;-69
2021/07/17 08:29:00;;;;;;;6.72;2.20;;;;;;;;;;5034851;28;20030;-68
2021/07/17 08:31:26;;;;;;;6.65;2.25;;;;;;;;;;5035291;28;20087;-70
2021/07/17 08:33:52;;;;;;;5.25;1.92;;;;;;;;;;5034969;28;20021;-68
2021/07/17 08:36:18;;;;;;;6.43;2.05;;;;;;;;;;5035259;28;20498;-69
2021/07/17 08:38:44;;;;;;;5.00;2.20;;;;;;;;;;5035236;28;20026;-69
2021/07/17 08:41:13;;;;;;;4.40;1.95;;;;;;;;;;5034460;28;20025;-69
2021/07/17 08:43:39;;;;;;;2.97;1.80;;;;;;;;;;5034401;28;20029;-69
2021/07/17 08:46:06;;;;;;;2.30;1.73;;;;;;;;;;5034217;28;20029;-70
2021/07/17 08:48:33;;;;;;;2.92;1.80;;;;;;;;;;5034572;28;20438;-69
2021/07/17 08:51:00;;;;;;;6.22;1.95;;;;;;;;;;5034743;28;20114;-69
2021/07/17 08:53:26;;;;;;;3.25;1.92;;;;;;;;;;5034948;28;20115;-69
2021/07/17 08:55:52;;;;;;;4.40;1.92;;;;;;;;;;5033761;28;20043;-68
2021/07/17 08:58:18;;;;;;;2.15;1.55;;;;;;;;;;5033838;28;20033;-69
2021/07/17 09:00:45;;;;;;;2.05;1.80;;;;;;;;;;5034560;28;20030;-70
2021/07/17 09:03:12;;;;;;;4.82;1.92;;;;;;;;;;5034705;28;20021;-69
2021/07/17 09:05:42;;;;;;;2.05;1.88;;;;;;;;;;5034392;28;20505;-70
2021/07/17 09:08:09;;;;;;;2.40;2.00;;;;;;;;;;5034749;28;20029;-69
2021/07/17 09:10:39;;;;;;;1.90;1.70;;;;;;;;;;5034595;28;20474;-69
2021/07/17 09:13:13;;;;;;;2.33;1.67;;;;;;;;;;5033075;28;20022;-69
2021/07/17 09:15:41;;;;;;;4.00;2.00;;;;;;;;;;5030760;28;20033;-69
2021/07/17 09:18:12;;;;;;;2.78;1.83;;;;;;;;;;5033764;28;20545;-68
2021/07/17 09:20:38;;;;;;;2.92;1.70;;;;;;;;;;5034330;28;20025;-69
2021/07/17 09:23:06;;;;;;;2.25;1.80;;;;;;;;;;5034168;28;20025;-69
2021/07/17 09:25:36;;;;;;;5.50;2.42;;;;;;;;;;5034476;28;20026;-69
2021/07/17 09:28:15;;;;;;;2.75;1.88;;;;;;;;;;5034221;28;20034;-69
2021/07/17 09:30:41;;;;;;;5.28;2.08;;;;;;;;;;5034472;28;20021;-69
2021/07/17 09:33:08;;;;;;;5.20;2.00;;;;;;;;;;5034478;28;20374;-69
2021/07/17 09:35:37;;;;;;;2.92;1.60;;;;;;;;;;5034290;28;20540;-69
2021/07/17 09:38:06;;;;;;;2.85;1.70;;;;;;;;;;5034477;28;20450;-69
2021/07/17 09:40:53;;;;;;;5.22;1.92;;;;;;;;;;5034145;28;20025;-69
2021/07/17 09:43:26;;;;;;;2.72;1.67;;;;;;;;;;5034060;28;20047;-71
2021/07/17 09:45:53;;;;;;;3.28;2.15;;;;;;;;;;5034250;28;20029;-69
2021/07/17 09:48:22;;;;;;;3.53;1.98;;;;;;;;;;5034155;28;20064;-69
2021/07/17 09:50:49;;;;;;;3.97;2.08;;;;;;;;;;5034225;28;20056;-69
2021/07/17 09:53:33;;;;;;;2.78;1.73;;;;;;;;;;5034114;28;20061;-69
2021/07/17 09:56:06;;;;;;;2.20;1.70;;;;;;;;;;5034038;28;20125;-68
2021/07/17 09:58:32;;;;;;;2.90;1.90;;;;;;;;;;5034095;28;20417;-69
2021/07/17 10:01:11;;;;;;;2.60;1.90;;;;;;;;;;5034086;28;20025;-69
2021/07/17 10:03:39;;;;;;;4.85;1.80;;;;;;;;;;5033945;28;20478;-70
2021/07/17 10:06:05;;;;;;;3.15;1.60;;;;;;;;;;5033475;28;20390;-69
2021/07/17 10:08:34;;;;;;;6.20;2.00;;;;;;;;;;5033836;28;20431;-69
2021/07/17 10:11:10;;;;;;;2.00;1.80;;;;;;;;;;5033693;28;20033;-71
2021/07/17 10:13:36;;;;;;;3.13;2.03;;;;;;;;;;5033658;28;20118;-69
2021/07/17 10:16:14;;;;;;;2.28;2.03;;;;;;;;;;5033377;28;20036;-69
2021/07/17 10:18:41;;;;;;;2.40;1.70;;;;;;;;;;5033426;28;20097;-70
2021/07/17 10:21:07;;;;;;;3.83;1.80;;;;;;;;;;5033710;28;20156;-69
2021/07/17 10:23:33;;;;;;;2.15;1.95;;;;;;;;;;5033404;28;20485;-69
2021/07/17 10:26:01;;;;;;;3.08;2.08;;;;;;;;;;5033360;28;20429;-69
2021/07/17 10:28:27;;;;;;;2.47;1.70;;;;;;;;;;5033329;28;20038;-69
2021/07/17 10:30:56;;;;;;;3.17;2.33;;;;;;;;;;5033421;28;20029;-69
2021/07/17 10:33:22;;;;;;;2.38;1.80;;;;;;;;;;5033151;28;20036;-70
2021/07/17 10:35:52;;;;;;;3.40;2.30;;;;;;;;;;5033282;28;20048;-69
2021/07/17 10:38:22;;;;;;;3.25;1.90;;;;;;;;;;5033513;28;20049;-69
2021/07/17 10:40:52;;;;;;;3.75;2.05;;;;;;;;;;5032655;28;20485;-67
2021/07/17 10:43:22;;;;;;;3.33;1.92;;;;;;;;;;5032790;28;20041;-68
2021/07/17 10:45:48;;;;;;;3.05;1.90;;;;;;;;;;5032874;28;20493;-68
2021/07/17 10:48:20;;;;;;;2.83;2.10;;;;;;;;;;5033173;28;20124;-68
2021/07/17 10:50:46;;;;;;;3.63;2.33;;;;;;;;;;5032928;28;20022;-68
2021/07/17 10:53:31;;;;;;;2.47;2.03;;;;;;;;;;5032776;28;20104;-72
2021/07/17 10:55:57;;;;;;;1.95;1.70;;;;;;;;;;5032799;28;20226;-68
2021/07/17 10:58:23;;;;;;;2.88;1.27;;;;;;;;;;5033022;28;20504;-68
2021/07/17 11:00:50;;;;;;;1.65;1.38;;;;;;;;;;5032847;28;20025;-69
2021/07/17 11:03:17;;;;;;;1.23;1.13;;;;;;;;;;5032751;28;20466;-68
2021/07/17 11:05:43;;;;;;;2.22;1.25;;;;;;;;;;5033018;28;20116;-68
2021/07/17 11:08:28;;;;;;;1.30;1.10;;;;;;;;;;5032891;28;20067;-72
2021/07/17 11:10:54;;;;;;;2.35;1.20;;;;;;;;;;5032934;28;20540;-68
2021/07/17 11:13:36;;;;;;;2.95;0.95;;;;;;;;;;5032780;28;20041;-68
2021/07/17 11:16:03;;;;;;;1.55;1.20;;;;;;;;;;5032769;28;20049;-68
2021/07/17 11:18:36;;;;;;;1.00;0.90;;;;;;;;;;5035282;28;20053;-68
2021/07/17 11:21:05;;;;;;;5.75;1.20;;;;;;;;;;5035593;28;20025;-67
2021/07/17 11:23:38;;;;;;;1.48;1.23;;;;;;;;;;5034023;28;20025;-67
2021/07/17 11:26:06;;;;;;;1.27;1.13;;;;;;;;;;5033965;28;20033;-67
2021/07/17 11:28:47;;;;;;;1.50;0.93;;;;;;;;;;5035249;28;20038;-67
2021/07/17 11:31:37;;;;;;;1.90;1.08;;;;;;;;;;5036630;28;20470;-67
2021/07/17 11:34:20;;;;;;;1.10;1.00;;;;;;;;;;5036571;28;20041;-68
2021/07/17 11:36:48;;;;;;;1.63;1.10;;;;;;;;;;5035297;28;20417;-68
2021/07/17 11:39:17;;;;;;;4.15;1.00;;;;;;;;;;5036306;28;20029;-71
2021/07/17 11:41:43;;;;;;;3.00;1.15;;;;;;;;;;5036210;28;20030;-67
2021/07/17 11:44:09;;;;;;;1.25;1.02;;;;;;;;;;5035780;28;20056;-67
2021/07/17 11:46:36;;;;;;;1.70;1.10;;;;;;;;;;5036094;28;20529;-67
2021/07/17 11:49:04;;;;;;;1.27;0.85;;;;;;;;;;5035928;28;20037;-68
2021/07/17 11:51:31;;;;;;;1.15;0.80;;;;;;;;;;5036149;28;20045;-68
2021/07/17 11:54:01;;;;;;;1.10;0.82;;;;;;;;;;5036271;28;20472;-68
2021/07/17 11:56:28;;;;;;;1.50;1.10;;;;;;;;;;5035872;28;20595;-69
2021/07/17 11:59:16;;;;;;;1.23;0.82;;;;;;;;;;5035891;28;20026;-68
2021/07/17 12:02:04;;;;;;;1.38;1.15;;;;;;;;;;5036084;28;20025;-68
2021/07/17 12:04:35;;;;;;;1.27;1.08;;;;;;;;;;5035661;28;20379;-69
2021/07/17 12:07:05;;;;;;;3.10;0.80;;;;;;;;;;5035068;28;20025;-67
2021/07/17 12:09:35;;;;;;;1.65;0.90;;;;;;;;;;5035658;28;20432;-68
2021/07/17 12:12:13;;;;;;;2.88;1.20;;;;;;;;;;5035445;28;20033;-68
2021/07/17 12:14:39;;;;;;;1.42;0.98;;;;;;;;;;5035474;28;20390;-68
2021/07/17 12:17:05;;;;;;;1.85;0.90;;;;;;;;;;5035457;28;20494;-68
2021/07/17 12:19:31;;;;;;;0.70;0.60;;;;;;;;;;5035424;28;20473;-68
2021/07/17 12:21:57;;;;;;;2.33;0.90;;;;;;;;;;5033443;28;20067;-68
2021/07/17 12:24:24;;;;;;;0.90;0.80;;;;;;;;;;5032729;28;20528;-68
2021/07/17 12:26:50;;;;;;;1.52;1.00;;;;;;;;;;5033949;28;20098;-68
2021/07/17 12:29:18;;;;;;;1.20;0.90;;;;;;;;;;5034328;28;20033;-68
2021/07/17 12:31:58;;;;;;;1.95;1.00;;;;;;;;;;5035606;28;20017;-68
2021/07/17 12:34:24;;;;;;;0.88;0.80;;;;;;;;;;5035264;28;20115;-68
2021/07/17 12:36:50;;;;;;;2.97;0.90;;;;;;;;;;5035551;28;20057;-69
2021/07/17 12:39:22;;;;;;;1.48;0.88;;;;;;;;;;5035335;28;20111;-69
2021/07/17 12:41:55;;;;;;;4.63;0.88;;;;;;;;;;5035194;28;20458;-69
2021/07/17 12:44:21;;;;;;;1.10;1.00;;;;;;;;;;5035013;28;20032;-68
2021/07/17 12:46:48;;;;;;;3.22;0.82;;;;;;;;;;5034934;28;20029;-68
2021/07/17 12:49:16;;;;;;;2.78;1.10;;;;;;;;;;5034964;28;20053;-68
2021/07/17 12:51:51;;;;;;;1.55;1.00;;;;;;;;;;5034940;28;20080;-68
2021/07/17 12:54:21;;;;;;;3.13;0.98;;;;;;;;;;5034894;28;20029;-67
2021/07/17 12:56:51;;;;;;;1.73;1.00;;;;;;;;;;5034498;28;20062;-68
2021/07/17 12:59:18;;;;;;;2.17;1.20;;;;;;;;;;5034900;28;20378;-68
2021/07/17 13:01:48;;;;;;;2.60;1.10;;;;;;;;;;5034997;28;20033;-69
2021/07/17 13:04:23;;;;;;;1.77;1.10;;;;;;;;;;5034578;28;20021;-69
2021/07/17 13:06:56;;;;;;;1.88;0.93;;;;;;;;;;5034641;28;20025;-69
2021/07/17 13:09:27;;;;;;;2.22;1.05;;;;;;;;;;5034742;28;20385;-69
2021/07/17 13:11:53;;;;;;;2.90;1.10;;;;;;;;;;5034785;28;20049;-69
2021/07/17 13:14:23;;;;;;;1.67;1.20;;;;;;;;;;5034721;28;20429;-69
2021/07/17 13:16:49;;;;;;;2.97;1.15;;;;;;;;;;5034848;28;20097;-69
2021/07/17 13:19:15;;;;;;;2.17;1.17;;;;;;;;;;5034283;28;20083;-72
2021/07/17 13:21:43;;;;;;;1.20;1.10;;;;;;;;;;5034761;28;20060;-67
2021/07/17 13:24:14;;;;;;;1.58;1.10;;;;;;;;;;5034272;28;20049;-69
2021/07/17 13:26:41;;;;;;;2.15;1.20;;;;;;;;;;5034356;28;20025;-69
2021/07/17 13:29:15;;;;;;;1.85;1.10;;;;;;;;;;5034345;28;20052;-68
2021/07/17 13:31:48;;;;;;;1.35;0.85;;;;;;;;;;5034132;28;20101;-68
2021/07/17 13:34:15;;;;;;;2.53;1.30;;;;;;;;;;5033966;28;20029;-67
2021/07/17 13:36:55;;;;;;;1.75;1.10;;;;;;;;;;5033966;28;20036;-69
2021/07/17 13:39:21;;;;;;;3.78;1.40;;;;;;;;;;5034093;28;20500;-67
2021/07/17 13:41:47;;;;;;;3.35;1.20;;;;;;;;;;5032770;28;20053;-67
2021/07/17 13:44:15;;;;;;;1.50;1.23;;;;;;;;;;5032822;28;20082;-68
2021/07/17 13:46:41;;;;;;;2.90;1.30;;;;;;;;;;5033679;28;20021;-71
2021/07/17 13:49:14;;;;;;;1.92;1.20;;;;;;;;;;5033646;28;20037;-67
2021/07/17 13:51:40;;;;;;;1.27;0.90;;;;;;;;;;5033600;28;20025;-67
2021/07/17 13:54:07;;;;;;;2.20;1.20;;;;;;;;;;5033885;28;20128;-70
2021/07/17 13:56:33;;;;;;;1.92;1.08;;;;;;;;;;5033933;28;20050;-71
2021/07/17 13:59:02;;;;;;;1.33;0.90;;;;;;;;;;5033872;28;20377;-67
2021/07/17 14:01:31;;;;;;;1.90;1.20;;;;;;;;;;5033680;28;20073;-67
2021/07/17 14:03:57;;;;;;;2.50;1.20;;;;;;;;;;5033619;28;20029;-72
2021/07/17 14:06:27;;;;;;;1.42;1.10;;;;;;;;;;5033927;28;20053;-67
2021/07/17 14:08:54;;;;;;;2.67;1.35;;;;;;;;;;5033571;28;20080;-68
2021/07/17 14:11:20;;;;;;;1.77;1.10;;;;;;;;;;5033516;28;20108;-67
2021/07/17 14:13:46;;;;;;;2.25;1.27;;;;;;;;;;5033558;28;20037;-67
2021/07/17 14:16:12;;;;;;;2.03;1.20;;;;;;;;;;5033584;28;20029;-67
2021/07/17 14:18:42;;;;;;;2.47;1.58;;;;;;;;;;5033410;28;20053;-67
2021/07/17 14:21:09;;;;;;;1.77;1.30;;;;;;;;;;5033376;28;20512;-68
2021/07/17 14:23:35;;;;;;;2.60;1.30;;;;;;;;;;5033283;28;20025;-71
2021/07/17 14:26:02;;;;;;;1.52;1.20;;;;;;;;;;5033313;28;20458;-67
2021/07/17 14:28:28;;;;;;;1.90;1.10;;;;;;;;;;5033124;28;20037;-67
2021/07/17 14:30:55;;;;;;;2.00;1.23;;;;;;;;;;5033334;28;20024;-67
2021/07/17 14:33:22;;;;;;;4.28;1.60;;;;;;;;;;5033297;28;20028;-68
2021/07/17 14:35:49;;;;;;;2.30;1.23;;;;;;;;;;5033503;28;20386;-71
2021/07/17 14:38:15;;;;;;;2.22;1.40;;;;;;;;;;5033436;28;20029;-67
2021/07/17 14:40:42;;;;;;;2.63;1.08;;;;;;;;;;5033132;28;20017;-67
2021/07/17 14:43:08;;;;;;;2.90;1.23;;;;;;;;;;5033001;28;20112;-67
2021/07/17 14:45:34;;;;;;;1.77;1.30;;;;;;;;;;5033311;28;20060;-67